X  Close Metar Aviation Weather Data     LYNI Nis Airport
Temperature
7°C Temperature
3°C Dewpoint
76% Humidity



Wind
11 KM/H
7 MPH
3 M/S
6 KTS



80°
E
Current Conditions

Partly Cloudy Partly Cloudy
Pressure 1024.92 (hPa) - 30.27 (inHg)
Visibility 6.2 (mile) - 10 (km)
Airport
Airport-code LYNI

Location: Nis Airport
Distance: 63 (km)

Metar:
LYNI 050430Z 08006KT 9999 FEW017 SCT037 07/03 Q1025 NOSIG

Time: 05-12-2022 05:30 CET